sensor_id;sensor_type;location;lat;lon;timestamp;P1;durP1;ratioP1;P2;durP2;ratioP2
59972;SDS011;55298;-36.624;-64.282;2023-06-26T00:00:50;6.22;;;4.30;;
59972;SDS011;55298;-36.624;-64.282;2023-06-26T00:03:21;4.40;;;3.75;;
59972;SDS011;55298;-36.624;-64.282;2023-06-26T00:05:52;4.65;;;3.90;;
59972;SDS011;55298;-36.624;-64.282;2023-06-26T00:08:20;4.22;;;3.80;;
59972;SDS011;55298;-36.624;-64.282;2023-06-26T00:10:48;7.65;;;4.43;;
59972;SDS011;55298;-36.624;-64.282;2023-06-26T00:13:18;5.20;;;4.70;;
59972;SDS011;55298;-36.624;-64.282;2023-06-26T00:15:46;8.52;;;6.03;;
59972;SDS011;55298;-36.624;-64.282;2023-06-26T00:18:14;5.50;;;5.00;;
59972;SDS011;55298;-36.624;-64.282;2023-06-26T00:20:45;9.68;;;5.93;;
59972;SDS011;55298;-36.624;-64.282;2023-06-26T00:23:16;11.63;;;8.50;;
59972;SDS011;55298;-36.624;-64.282;2023-06-26T00:25:44;10.45;;;7.35;;
59972;SDS011;55298;-36.624;-64.282;2023-06-26T00:28:12;6.97;;;6.28;;
59972;SDS011;55298;-36.624;-64.282;2023-06-26T00:30:40;7.25;;;6.40;;
59972;SDS011;55298;-36.624;-64.282;2023-06-26T00:33:11;8.60;;;6.40;;
59972;SDS011;55298;-36.624;-64.282;2023-06-26T00:35:39;5.10;;;4.70;;
59972;SDS011;55298;-36.624;-64.282;2023-06-26T00:38:11;4.07;;;3.65;;
59972;SDS011;55298;-36.624;-64.282;2023-06-26T00:40:39;5.13;;;4.63;;
59972;SDS011;55298;-36.624;-64.282;2023-06-26T00:43:07;9.70;;;6.80;;
59972;SDS011;55298;-36.624;-64.282;2023-06-26T00:45:38;6.15;;;5.20;;
59972;SDS011;55298;-36.624;-64.282;2023-06-26T00:48:09;6.13;;;4.90;;
59972;SDS011;55298;-36.624;-64.282;2023-06-26T00:50:38;9.60;;;7.53;;
59972;SDS011;55298;-36.624;-64.282;2023-06-26T00:53:10;7.03;;;5.72;;
59972;SDS011;55298;-36.624;-64.282;2023-06-26T00:55:38;7.97;;;6.93;;
59972;SDS011;55298;-36.624;-64.282;2023-06-26T00:58:06;8.00;;;6.63;;
59972;SDS011;55298;-36.624;-64.282;2023-06-26T01:00:34;8.18;;;7.38;;
59972;SDS011;55298;-36.624;-64.282;2023-06-26T01:03:02;6.70;;;6.10;;
59972;SDS011;55298;-36.624;-64.282;2023-06-26T01:05:30;8.95;;;7.57;;
59972;SDS011;55298;-36.624;-64.282;2023-06-26T01:07:59;14.25;;;9.63;;
59972;SDS011;55298;-36.624;-64.282;2023-06-26T01:13:02;14.52;;;11.32;;
59972;SDS011;55298;-36.624;-64.282;2023-06-26T01:15:34;9.65;;;7.38;;
59972;SDS011;55298;-36.624;-64.282;2023-06-26T01:18:11;6.93;;;5.13;;
59972;SDS011;55298;-36.624;-64.282;2023-06-26T01:20:41;4.40;;;4.10;;
59972;SDS011;55298;-36.624;-64.282;2023-06-26T01:23:29;3.92;;;3.63;;
59972;SDS011;55298;-36.624;-64.282;2023-06-26T01:28:43;5.13;;;4.63;;
59972;SDS011;55298;-36.624;-64.282;2023-06-26T01:31:11;6.38;;;5.20;;
59972;SDS011;55298;-36.624;-64.282;2023-06-26T01:33:40;5.85;;;5.30;;
59972;SDS011;55298;-36.624;-64.282;2023-06-26T01:36:10;6.38;;;5.53;;
59972;SDS011;55298;-36.624;-64.282;2023-06-26T01:38:39;10.57;;;5.40;;
59972;SDS011;55298;-36.624;-64.282;2023-06-26T01:41:07;5.55;;;5.00;;
59972;SDS011;55298;-36.624;-64.282;2023-06-26T01:46:37;4.97;;;4.47;;
59972;SDS011;55298;-36.624;-64.282;2023-06-26T01:52:02;12.68;;;5.80;;
59972;SDS011;55298;-36.624;-64.282;2023-06-26T01:54:53;9.75;;;6.63;;
59972;SDS011;55298;-36.624;-64.282;2023-06-26T01:57:33;6.03;;;5.00;;
59972;SDS011;55298;-36.624;-64.282;2023-06-26T02:00:04;7.18;;;5.15;;
59972;SDS011;55298;-36.624;-64.282;2023-06-26T02:02:35;9.82;;;5.85;;
59972;SDS011;55298;-36.624;-64.282;2023-06-26T02:05:03;5.65;;;5.15;;
59972;SDS011;55298;-36.624;-64.282;2023-06-26T02:07:31;5.57;;;4.63;;
59972;SDS011;55298;-36.624;-64.282;2023-06-26T02:09:59;5.22;;;4.75;;
59972;SDS011;55298;-36.624;-64.282;2023-06-26T02:12:27;4.80;;;4.20;;
59972;SDS011;55298;-36.624;-64.282;2023-06-26T02:14:56;5.82;;;4.22;;
59972;SDS011;55298;-36.624;-64.282;2023-06-26T02:17:24;4.43;;;4.13;;
59972;SDS011;55298;-36.624;-64.282;2023-06-26T02:19:52;4.80;;;4.32;;
59972;SDS011;55298;-36.624;-64.282;2023-06-26T02:22:19;7.55;;;5.43;;
59972;SDS011;55298;-36.624;-64.282;2023-06-26T02:24:48;5.00;;;4.70;;
59972;SDS011;55298;-36.624;-64.282;2023-06-26T02:27:17;9.48;;;5.15;;
59972;SDS011;55298;-36.624;-64.282;2023-06-26T02:29:44;9.50;;;5.05;;
59972;SDS011;55298;-36.624;-64.282;2023-06-26T02:32:12;6.68;;;4.20;;
59972;SDS011;55298;-36.624;-64.282;2023-06-26T02:34:40;6.22;;;4.00;;
59972;SDS011;55298;-36.624;-64.282;2023-06-26T02:37:21;4.40;;;4.10;;
59972;SDS011;55298;-36.624;-64.282;2023-06-26T02:39:49;4.55;;;4.13;;
59972;SDS011;55298;-36.624;-64.282;2023-06-26T02:42:21;4.57;;;4.18;;
59972;SDS011;55298;-36.624;-64.282;2023-06-26T02:44:49;4.82;;;4.43;;
59972;SDS011;55298;-36.624;-64.282;2023-06-26T02:47:17;5.80;;;4.00;;
59972;SDS011;55298;-36.624;-64.282;2023-06-26T02:49:45;4.20;;;3.90;;
59972;SDS011;55298;-36.624;-64.282;2023-06-26T02:52:12;4.45;;;4.15;;
59972;SDS011;55298;-36.624;-64.282;2023-06-26T02:54:40;8.13;;;4.80;;
59972;SDS011;55298;-36.624;-64.282;2023-06-26T02:57:08;7.53;;;4.18;;
59972;SDS011;55298;-36.624;-64.282;2023-06-26T02:59:36;12.00;;;4.82;;
59972;SDS011;55298;-36.624;-64.282;2023-06-26T03:02:05;5.07;;;4.38;;
59972;SDS011;55298;-36.624;-64.282;2023-06-26T03:04:32;5.53;;;4.28;;
59972;SDS011;55298;-36.624;-64.282;2023-06-26T03:07:02;7.28;;;4.60;;
59972;SDS011;55298;-36.624;-64.282;2023-06-26T03:09:34;14.95;;;5.78;;
59972;SDS011;55298;-36.624;-64.282;2023-06-26T03:12:13;7.55;;;5.15;;
59972;SDS011;55298;-36.624;-64.282;2023-06-26T03:14:43;16.63;;;6.25;;
59972;SDS011;55298;-36.624;-64.282;2023-06-26T03:17:21;12.60;;;5.50;;
59972;SDS011;55298;-36.624;-64.282;2023-06-26T03:19:48;10.68;;;5.65;;
59972;SDS011;55298;-36.624;-64.282;2023-06-26T03:22:17;5.50;;;4.80;;
59972;SDS011;55298;-36.624;-64.282;2023-06-26T03:24:45;6.97;;;5.40;;
59972;SDS011;55298;-36.624;-64.282;2023-06-26T03:27:13;6.05;;;5.40;;
59972;SDS011;55298;-36.624;-64.282;2023-06-26T03:29:41;6.53;;;4.97;;
59972;SDS011;55298;-36.624;-64.282;2023-06-26T03:32:09;9.05;;;4.60;;
59972;SDS011;55298;-36.624;-64.282;2023-06-26T03:34:37;6.85;;;4.93;;
59972;SDS011;55298;-36.624;-64.282;2023-06-26T03:37:04;6.63;;;5.95;;
59972;SDS011;55298;-36.624;-64.282;2023-06-26T03:39:33;12.10;;;7.05;;
59972;SDS011;55298;-36.624;-64.282;2023-06-26T03:42:06;8.73;;;7.82;;
59972;SDS011;55298;-36.624;-64.282;2023-06-26T03:44:34;8.50;;;7.50;;
59972;SDS011;55298;-36.624;-64.282;2023-06-26T03:47:03;8.52;;;6.30;;
59972;SDS011;55298;-36.624;-64.282;2023-06-26T03:49:38;8.25;;;7.30;;
59972;SDS011;55298;-36.624;-64.282;2023-06-26T03:52:12;6.75;;;5.30;;
59972;SDS011;55298;-36.624;-64.282;2023-06-26T03:54:52;6.80;;;5.50;;
59972;SDS011;55298;-36.624;-64.282;2023-06-26T03:57:21;6.00;;;5.40;;
59972;SDS011;55298;-36.624;-64.282;2023-06-26T03:59:49;5.55;;;4.90;;
59972;SDS011;55298;-36.624;-64.282;2023-06-26T04:02:17;8.15;;;5.68;;
59972;SDS011;55298;-36.624;-64.282;2023-06-26T04:04:44;6.72;;;5.40;;
59972;SDS011;55298;-36.624;-64.282;2023-06-26T04:07:13;7.65;;;5.97;;
59972;SDS011;55298;-36.624;-64.282;2023-06-26T04:09:41;6.18;;;5.57;;
59972;SDS011;55298;-36.624;-64.282;2023-06-26T04:12:09;9.75;;;5.95;;
59972;SDS011;55298;-36.624;-64.282;2023-06-26T04:14:37;6.53;;;5.88;;
59972;SDS011;55298;-36.624;-64.282;2023-06-26T04:17:06;6.05;;;5.47;;
59972;SDS011;55298;-36.624;-64.282;2023-06-26T04:19:37;6.07;;;5.50;;
59972;SDS011;55298;-36.624;-64.282;2023-06-26T04:22:05;6.00;;;5.50;;
59972;SDS011;55298;-36.624;-64.282;2023-06-26T04:24:33;5.63;;;5.18;;
59972;SDS011;55298;-36.624;-64.282;2023-06-26T04:27:05;5.97;;;5.45;;
59972;SDS011;55298;-36.624;-64.282;2023-06-26T04:29:33;5.20;;;4.88;;
59972;SDS011;55298;-36.624;-64.282;2023-06-26T04:32:05;5.50;;;5.00;;
59972;SDS011;55298;-36.624;-64.282;2023-06-26T04:34:36;5.15;;;4.75;;
59972;SDS011;55298;-36.624;-64.282;2023-06-26T04:37:09;5.68;;;4.63;;
59972;SDS011;55298;-36.624;-64.282;2023-06-26T04:39:42;4.57;;;4.38;;
59972;SDS011;55298;-36.624;-64.282;2023-06-26T04:42:41;4.65;;;4.35;;
59972;SDS011;55298;-36.624;-64.282;2023-06-26T04:45:11;4.57;;;4.18;;
59972;SDS011;55298;-36.624;-64.282;2023-06-26T04:47:39;4.45;;;4.15;;
59972;SDS011;55298;-36.624;-64.282;2023-06-26T04:50:07;4.18;;;3.95;;
59972;SDS011;55298;-36.624;-64.282;2023-06-26T04:52:35;4.22;;;4.03;;
59972;SDS011;55298;-36.624;-64.282;2023-06-26T04:55:02;6.93;;;4.22;;
59972;SDS011;55298;-36.624;-64.282;2023-06-26T04:57:30;4.55;;;4.20;;
59972;SDS011;55298;-36.624;-64.282;2023-06-26T04:59:58;3.58;;;3.38;;
59972;SDS011;55298;-36.624;-64.282;2023-06-26T05:02:26;3.85;;;3.55;;
59972;SDS011;55298;-36.624;-64.282;2023-06-26T05:04:55;4.13;;;3.80;;
59972;SDS011;55298;-36.624;-64.282;2023-06-26T05:07:22;3.65;;;3.45;;
59972;SDS011;55298;-36.624;-64.282;2023-06-26T05:09:50;3.53;;;3.28;;
59972;SDS011;55298;-36.624;-64.282;2023-06-26T05:12:17;4.28;;;3.92;;
59972;SDS011;55298;-36.624;-64.282;2023-06-26T05:14:46;3.60;;;3.30;;
59972;SDS011;55298;-36.624;-64.282;2023-06-26T05:17:14;4.03;;;3.78;;
59972;SDS011;55298;-36.624;-64.282;2023-06-26T05:19:42;3.88;;;3.60;;
59972;SDS011;55298;-36.624;-64.282;2023-06-26T05:22:10;3.67;;;3.47;;
59972;SDS011;55298;-36.624;-64.282;2023-06-26T05:24:39;4.00;;;3.70;;
59972;SDS011;55298;-36.624;-64.282;2023-06-26T05:27:09;3.70;;;3.50;;
59972;SDS011;55298;-36.624;-64.282;2023-06-26T05:29:41;4.18;;;3.97;;
59972;SDS011;55298;-36.624;-64.282;2023-06-26T05:32:12;6.47;;;3.63;;
59972;SDS011;55298;-36.624;-64.282;2023-06-26T05:34:50;3.55;;;3.35;;
59972;SDS011;55298;-36.624;-64.282;2023-06-26T05:37:21;3.47;;;3.28;;
59972;SDS011;55298;-36.624;-64.282;2023-06-26T05:39:50;3.88;;;3.60;;
59972;SDS011;55298;-36.624;-64.282;2023-06-26T05:42:40;3.10;;;3.00;;
59972;SDS011;55298;-36.624;-64.282;2023-06-26T05:45:08;3.42;;;3.22;;
59972;SDS011;55298;-36.624;-64.282;2023-06-26T05:47:41;3.38;;;3.17;;
59972;SDS011;55298;-36.624;-64.282;2023-06-26T05:50:17;3.50;;;3.40;;
59972;SDS011;55298;-36.624;-64.282;2023-06-26T05:52:45;3.17;;;3.08;;
59972;SDS011;55298;-36.624;-64.282;2023-06-26T05:55:13;3.53;;;3.33;;
59972;SDS011;55298;-36.624;-64.282;2023-06-26T05:57:41;3.83;;;3.63;;
59972;SDS011;55298;-36.624;-64.282;2023-06-26T06:00:09;3.67;;;3.50;;
59972;SDS011;55298;-36.624;-64.282;2023-06-26T06:02:38;3.78;;;3.47;;
59972;SDS011;55298;-36.624;-64.282;2023-06-26T06:05:07;3.67;;;3.47;;
59972;SDS011;55298;-36.624;-64.282;2023-06-26T06:07:36;3.83;;;3.58;;
59972;SDS011;55298;-36.624;-64.282;2023-06-26T06:10:05;3.85;;;3.65;;
59972;SDS011;55298;-36.624;-64.282;2023-06-26T06:12:33;3.65;;;3.47;;
59972;SDS011;55298;-36.624;-64.282;2023-06-26T06:15:01;4.53;;;4.32;;
59972;SDS011;55298;-36.624;-64.282;2023-06-26T06:17:29;3.97;;;3.78;;
59972;SDS011;55298;-36.624;-64.282;2023-06-26T06:19:56;3.83;;;3.55;;
59972;SDS011;55298;-36.624;-64.282;2023-06-26T06:22:24;3.90;;;3.70;;
59972;SDS011;55298;-36.624;-64.282;2023-06-26T06:24:52;4.00;;;3.03;;
59972;SDS011;55298;-36.624;-64.282;2023-06-26T06:27:20;3.72;;;3.53;;
59972;SDS011;55298;-36.624;-64.282;2023-06-26T06:29:48;3.75;;;3.45;;
59972;SDS011;55298;-36.624;-64.282;2023-06-26T06:32:16;3.60;;;3.33;;
59972;SDS011;55298;-36.624;-64.282;2023-06-26T06:34:44;3.45;;;3.25;;
59972;SDS011;55298;-36.624;-64.282;2023-06-26T06:37:12;3.83;;;3.50;;
59972;SDS011;55298;-36.624;-64.282;2023-06-26T06:39:40;3.88;;;3.63;;
59972;SDS011;55298;-36.624;-64.282;2023-06-26T06:42:07;4.00;;;3.70;;
59972;SDS011;55298;-36.624;-64.282;2023-06-26T06:44:35;3.78;;;3.47;;
59972;SDS011;55298;-36.624;-64.282;2023-06-26T06:47:02;3.97;;;3.67;;
59972;SDS011;55298;-36.624;-64.282;2023-06-26T06:49:30;3.97;;;3.72;;
59972;SDS011;55298;-36.624;-64.282;2023-06-26T06:51:58;4.82;;;3.72;;
59972;SDS011;55298;-36.624;-64.282;2023-06-26T06:54:26;4.47;;;4.07;;
59972;SDS011;55298;-36.624;-64.282;2023-06-26T06:56:56;3.88;;;3.67;;
59972;SDS011;55298;-36.624;-64.282;2023-06-26T06:59:23;3.95;;;3.65;;
59972;SDS011;55298;-36.624;-64.282;2023-06-26T07:01:51;3.40;;;3.25;;
59972;SDS011;55298;-36.624;-64.282;2023-06-26T07:04:19;3.75;;;3.55;;
59972;SDS011;55298;-36.624;-64.282;2023-06-26T07:06:46;3.50;;;3.40;;
59972;SDS011;55298;-36.624;-64.282;2023-06-26T07:09:14;3.50;;;3.40;;
59972;SDS011;55298;-36.624;-64.282;2023-06-26T07:11:50;3.55;;;3.45;;
59972;SDS011;55298;-36.624;-64.282;2023-06-26T07:14:22;3.97;;;3.70;;
59972;SDS011;55298;-36.624;-64.282;2023-06-26T07:16:50;3.13;;;3.03;;
59972;SDS011;55298;-36.624;-64.282;2023-06-26T07:19:18;3.08;;;2.97;;
59972;SDS011;55298;-36.624;-64.282;2023-06-26T07:21:45;3.10;;;3.00;;
59972;SDS011;55298;-36.624;-64.282;2023-06-26T07:24:13;3.30;;;3.20;;
59972;SDS011;55298;-36.624;-64.282;2023-06-26T07:26:41;3.35;;;3.15;;
59972;SDS011;55298;-36.624;-64.282;2023-06-26T07:29:09;3.70;;;3.50;;
59972;SDS011;55298;-36.624;-64.282;2023-06-26T07:31:37;3.10;;;3.00;;
59972;SDS011;55298;-36.624;-64.282;2023-06-26T07:34:04;2.95;;;2.85;;
59972;SDS011;55298;-36.624;-64.282;2023-06-26T07:36:32;3.17;;;3.08;;
59972;SDS011;55298;-36.624;-64.282;2023-06-26T07:39:00;3.50;;;3.35;;
59972;SDS011;55298;-36.624;-64.282;2023-06-26T07:41:27;3.13;;;3.03;;
59972;SDS011;55298;-36.624;-64.282;2023-06-26T07:43:58;3.53;;;3.33;;
59972;SDS011;55298;-36.624;-64.282;2023-06-26T07:46:26;3.35;;;3.25;;
59972;SDS011;55298;-36.624;-64.282;2023-06-26T07:48:53;3.42;;;3.22;;
59972;SDS011;55298;-36.624;-64.282;2023-06-26T07:51:21;3.00;;;2.80;;
59972;SDS011;55298;-36.624;-64.282;2023-06-26T07:53:49;3.35;;;3.25;;
59972;SDS011;55298;-36.624;-64.282;2023-06-26T07:56:17;3.80;;;3.22;;
59972;SDS011;55298;-36.624;-64.282;2023-06-26T07:58:45;8.32;;;3.97;;
59972;SDS011;55298;-36.624;-64.282;2023-06-26T08:01:13;4.90;;;3.25;;
59972;SDS011;55298;-36.624;-64.282;2023-06-26T08:03:41;3.30;;;3.10;;
59972;SDS011;55298;-36.624;-64.282;2023-06-26T08:06:10;4.63;;;3.40;;
59972;SDS011;55298;-36.624;-64.282;2023-06-26T08:08:37;3.00;;;2.90;;
59972;SDS011;55298;-36.624;-64.282;2023-06-26T08:11:05;3.72;;;3.42;;
59972;SDS011;55298;-36.624;-64.282;2023-06-26T08:13:33;3.47;;;3.28;;
59972;SDS011;55298;-36.624;-64.282;2023-06-26T08:16:00;7.00;;;4.25;;
59972;SDS011;55298;-36.624;-64.282;2023-06-26T08:18:28;3.95;;;3.17;;
59972;SDS011;55298;-36.624;-64.282;2023-06-26T08:20:56;2.90;;;2.80;;
59972;SDS011;55298;-36.624;-64.282;2023-06-26T08:23:23;3.50;;;3.38;;
59972;SDS011;55298;-36.624;-64.282;2023-06-26T08:25:51;3.10;;;3.00;;
59972;SDS011;55298;-36.624;-64.282;2023-06-26T08:28:20;3.05;;;2.88;;
59972;SDS011;55298;-36.624;-64.282;2023-06-26T08:30:48;3.22;;;3.03;;
59972;SDS011;55298;-36.624;-64.282;2023-06-26T08:33:16;3.60;;;3.25;;
59972;SDS011;55298;-36.624;-64.282;2023-06-26T08:35:44;3.28;;;3.00;;
59972;SDS011;55298;-36.624;-64.282;2023-06-26T08:38:11;3.08;;;2.97;;
59972;SDS011;55298;-36.624;-64.282;2023-06-26T08:40:39;6.32;;;3.70;;
59972;SDS011;55298;-36.624;-64.282;2023-06-26T08:43:07;3.10;;;2.85;;
59972;SDS011;55298;-36.624;-64.282;2023-06-26T08:45:35;3.13;;;3.03;;
59972;SDS011;55298;-36.624;-64.282;2023-06-26T08:48:03;3.20;;;3.00;;
59972;SDS011;55298;-36.624;-64.282;2023-06-26T08:50:34;3.33;;;3.22;;
59972;SDS011;55298;-36.624;-64.282;2023-06-26T08:53:09;3.50;;;3.30;;
59972;SDS011;55298;-36.624;-64.282;2023-06-26T08:55:49;3.67;;;3.10;;
59972;SDS011;55298;-36.624;-64.282;2023-06-26T08:58:20;3.60;;;3.30;;
59972;SDS011;55298;-36.624;-64.282;2023-06-26T09:00:47;3.10;;;3.00;;
59972;SDS011;55298;-36.624;-64.282;2023-06-26T09:03:15;3.30;;;3.20;;
59972;SDS011;55298;-36.624;-64.282;2023-06-26T09:05:43;3.38;;;3.17;;
59972;SDS011;55298;-36.624;-64.282;2023-06-26T09:08:11;3.30;;;3.10;;
59972;SDS011;55298;-36.624;-64.282;2023-06-26T09:10:39;3.50;;;3.20;;
59972;SDS011;55298;-36.624;-64.282;2023-06-26T09:13:07;3.67;;;3.40;;
59972;SDS011;55298;-36.624;-64.282;2023-06-26T09:15:41;4.43;;;3.55;;
59972;SDS011;55298;-36.624;-64.282;2023-06-26T09:18:10;3.13;;;2.90;;
59972;SDS011;55298;-36.624;-64.282;2023-06-26T09:20:42;3.67;;;3.53;;
59972;SDS011;55298;-36.624;-64.282;2023-06-26T09:23:10;3.47;;;3.17;;
59972;SDS011;55298;-36.624;-64.282;2023-06-26T09:25:39;3.25;;;3.05;;
59972;SDS011;55298;-36.624;-64.282;2023-06-26T09:28:08;3.15;;;2.85;;
59972;SDS011;55298;-36.624;-64.282;2023-06-26T09:30:36;3.45;;;3.25;;
59972;SDS011;55298;-36.624;-64.282;2023-06-26T09:35:43;3.40;;;3.20;;
59972;SDS011;55298;-36.624;-64.282;2023-06-26T09:38:12;3.08;;;2.88;;
59972;SDS011;55298;-36.624;-64.282;2023-06-26T09:40:40;3.35;;;3.13;;
59972;SDS011;55298;-36.624;-64.282;2023-06-26T09:43:09;3.53;;;3.33;;
59972;SDS011;55298;-36.624;-64.282;2023-06-26T09:45:40;3.42;;;3.13;;
59972;SDS011;55298;-36.624;-64.282;2023-06-26T09:48:08;3.47;;;3.33;;
59972;SDS011;55298;-36.624;-64.282;2023-06-26T09:50:37;3.00;;;2.90;;
59972;SDS011;55298;-36.624;-64.282;2023-06-26T09:53:10;3.33;;;3.05;;
59972;SDS011;55298;-36.624;-64.282;2023-06-26T09:55:40;3.58;;;3.28;;
59972;SDS011;55298;-36.624;-64.282;2023-06-26T09:58:11;4.80;;;3.80;;
59972;SDS011;55298;-36.624;-64.282;2023-06-26T10:00:41;3.78;;;3.30;;
59972;SDS011;55298;-36.624;-64.282;2023-06-26T10:03:10;3.67;;;3.25;;
59972;SDS011;55298;-36.624;-64.282;2023-06-26T10:05:39;3.67;;;3.35;;
59972;SDS011;55298;-36.624;-64.282;2023-06-26T10:08:12;3.17;;;2.97;;
59972;SDS011;55298;-36.624;-64.282;2023-06-26T10:10:42;4.38;;;3.97;;
59972;SDS011;55298;-36.624;-64.282;2023-06-26T10:13:15;5.15;;;3.25;;
59972;SDS011;55298;-36.624;-64.282;2023-06-26T10:15:54;3.92;;;3.63;;
59972;SDS011;55298;-36.624;-64.282;2023-06-26T10:18:31;4.10;;;3.47;;
59972;SDS011;55298;-36.624;-64.282;2023-06-26T10:21:06;4.03;;;3.72;;
59972;SDS011;55298;-36.624;-64.282;2023-06-26T10:23:36;11.00;;;8.55;;
59972;SDS011;55298;-36.624;-64.282;2023-06-26T10:26:08;3.80;;;3.60;;
59972;SDS011;55298;-36.624;-64.282;2023-06-26T10:28:37;4.07;;;3.38;;
59972;SDS011;55298;-36.624;-64.282;2023-06-26T10:31:08;5.55;;;3.80;;
59972;SDS011;55298;-36.624;-64.282;2023-06-26T10:33:38;16.40;;;11.15;;
59972;SDS011;55298;-36.624;-64.282;2023-06-26T10:36:15;7.25;;;4.57;;
59972;SDS011;55298;-36.624;-64.282;2023-06-26T10:38:48;4.88;;;3.45;;
59972;SDS011;55298;-36.624;-64.282;2023-06-26T10:41:20;4.80;;;4.45;;
59972;SDS011;55298;-36.624;-64.282;2023-06-26T10:49:24;7.13;;;4.82;;
59972;SDS011;55298;-36.624;-64.282;2023-06-26T10:52:00;3.60;;;3.40;;
59972;SDS011;55298;-36.624;-64.282;2023-06-26T10:54:30;3.83;;;3.45;;
59972;SDS011;55298;-36.624;-64.282;2023-06-26T10:56:59;3.72;;;3.53;;
59972;SDS011;55298;-36.624;-64.282;2023-06-26T10:59:43;4.45;;;4.15;;
59972;SDS011;55298;-36.624;-64.282;2023-06-26T11:02:10;5.25;;;4.80;;
59972;SDS011;55298;-36.624;-64.282;2023-06-26T11:04:39;5.90;;;5.07;;
59972;SDS011;55298;-36.624;-64.282;2023-06-26T11:07:22;6.43;;;4.80;;
59972;SDS011;55298;-36.624;-64.282;2023-06-26T11:09:59;3.70;;;3.42;;
59972;SDS011;55298;-36.624;-64.282;2023-06-26T11:18:09;4.45;;;3.67;;
59972;SDS011;55298;-36.624;-64.282;2023-06-26T11:20:45;4.63;;;4.22;;
59972;SDS011;55298;-36.624;-64.282;2023-06-26T11:23:17;6.20;;;4.95;;
59972;SDS011;55298;-36.624;-64.282;2023-06-26T11:26:12;4.82;;;4.10;;
59972;SDS011;55298;-36.624;-64.282;2023-06-26T11:28:47;6.18;;;4.60;;
59972;SDS011;55298;-36.624;-64.282;2023-06-26T11:31:25;7.97;;;4.22;;
59972;SDS011;55298;-36.624;-64.282;2023-06-26T11:34:02;8.35;;;5.25;;
59972;SDS011;55298;-36.624;-64.282;2023-06-26T11:36:40;5.50;;;4.97;;
59972;SDS011;55298;-36.624;-64.282;2023-06-26T11:39:23;5.35;;;4.85;;
59972;SDS011;55298;-36.624;-64.282;2023-06-26T11:42:21;4.82;;;3.80;;
59972;SDS011;55298;-36.624;-64.282;2023-06-26T11:44:51;3.95;;;3.60;;
59972;SDS011;55298;-36.624;-64.282;2023-06-26T11:47:20;4.00;;;3.67;;
59972;SDS011;55298;-36.624;-64.282;2023-06-26T11:49:52;6.22;;;3.92;;
59972;SDS011;55298;-36.624;-64.282;2023-06-26T11:52:20;5.70;;;4.20;;
59972;SDS011;55298;-36.624;-64.282;2023-06-26T11:54:48;3.40;;;3.13;;
59972;SDS011;55298;-36.624;-64.282;2023-06-26T11:57:16;3.75;;;3.20;;
59972;SDS011;55298;-36.624;-64.282;2023-06-26T11:59:44;3.85;;;3.45;;
59972;SDS011;55298;-36.624;-64.282;2023-06-26T12:02:13;4.38;;;3.88;;
59972;SDS011;55298;-36.624;-64.282;2023-06-26T12:04:42;5.68;;;3.70;;
59972;SDS011;55298;-36.624;-64.282;2023-06-26T12:07:10;4.65;;;4.20;;
59972;SDS011;55298;-36.624;-64.282;2023-06-26T12:09:43;3.88;;;2.97;;
59972;SDS011;55298;-36.624;-64.282;2023-06-26T12:12:13;3.85;;;3.55;;
59972;SDS011;55298;-36.624;-64.282;2023-06-26T12:14:43;3.05;;;2.80;;
59972;SDS011;55298;-36.624;-64.282;2023-06-26T12:17:17;4.88;;;3.42;;
59972;SDS011;55298;-36.624;-64.282;2023-06-26T12:19:52;3.45;;;3.15;;
59972;SDS011;55298;-36.624;-64.282;2023-06-26T12:22:21;5.13;;;3.47;;
59972;SDS011;55298;-36.624;-64.282;2023-06-26T12:24:49;3.40;;;3.05;;
59972;SDS011;55298;-36.624;-64.282;2023-06-26T12:27:18;6.47;;;5.10;;
59972;SDS011;55298;-36.624;-64.282;2023-06-26T12:29:50;8.85;;;6.15;;
59972;SDS011;55298;-36.624;-64.282;2023-06-26T12:32:25;3.65;;;2.90;;
59972;SDS011;55298;-36.624;-64.282;2023-06-26T12:35:03;3.60;;;3.00;;
59972;SDS011;55298;-36.624;-64.282;2023-06-26T12:37:36;3.60;;;3.40;;
59972;SDS011;55298;-36.624;-64.282;2023-06-26T12:40:16;3.08;;;2.97;;
59972;SDS011;55298;-36.624;-64.282;2023-06-26T12:45:38;7.82;;;3.97;;
59972;SDS011;55298;-36.624;-64.282;2023-06-26T12:48:41;10.77;;;4.32;;
59972;SDS011;55298;-36.624;-64.282;2023-06-26T12:51:12;5.47;;;3.72;;
59972;SDS011;55298;-36.624;-64.282;2023-06-26T12:53:43;3.78;;;3.40;;
59972;SDS011;55298;-36.624;-64.282;2023-06-26T12:56:11;7.78;;;3.85;;
59972;SDS011;55298;-36.624;-64.282;2023-06-26T12:58:56;6.63;;;3.35;;
59972;SDS011;55298;-36.624;-64.282;2023-06-26T13:01:27;6.93;;;3.35;;
59972;SDS011;55298;-36.624;-64.282;2023-06-26T13:04:00;5.35;;;3.33;;
59972;SDS011;55298;-36.624;-64.282;2023-06-26T13:09:05;6.93;;;3.90;;
59972;SDS011;55298;-36.624;-64.282;2023-06-26T13:14:37;4.00;;;3.13;;
59972;SDS011;55298;-36.624;-64.282;2023-06-26T13:17:18;4.70;;;2.95;;
59972;SDS011;55298;-36.624;-64.282;2023-06-26T13:19:46;6.38;;;3.05;;
59972;SDS011;55298;-36.624;-64.282;2023-06-26T13:22:14;11.52;;;6.93;;
59972;SDS011;55298;-36.624;-64.282;2023-06-26T13:24:46;6.18;;;3.20;;
59972;SDS011;55298;-36.624;-64.282;2023-06-26T13:29:50;4.53;;;4.00;;
59972;SDS011;55298;-36.624;-64.282;2023-06-26T13:34:54;6.00;;;4.90;;
59972;SDS011;55298;-36.624;-64.282;2023-06-26T13:37:27;8.73;;;6.18;;
59972;SDS011;55298;-36.624;-64.282;2023-06-26T13:40:00;4.13;;;3.72;;
59972;SDS011;55298;-36.624;-64.282;2023-06-26T13:43:35;2.88;;;2.50;;
59972;SDS011;55298;-36.624;-64.282;2023-06-26T13:46:15;4.32;;;2.40;;
59972;SDS011;55298;-36.624;-64.282;2023-06-26T13:48:57;4.80;;;3.55;;
59972;SDS011;55298;-36.624;-64.282;2023-06-26T13:52:06;2.67;;;2.38;;
59972;SDS011;55298;-36.624;-64.282;2023-06-26T13:54:45;2.58;;;2.38;;
59972;SDS011;55298;-36.624;-64.282;2023-06-26T13:57:31;3.28;;;2.70;;
59972;SDS011;55298;-36.624;-64.282;2023-06-26T14:00:01;3.17;;;2.28;;
59972;SDS011;55298;-36.624;-64.282;2023-06-26T14:02:35;3.47;;;3.15;;
59972;SDS011;55298;-36.624;-64.282;2023-06-26T14:05:03;2.53;;;2.42;;
59972;SDS011;55298;-36.624;-64.282;2023-06-26T14:07:34;6.18;;;2.78;;
59972;SDS011;55298;-36.624;-64.282;2023-06-26T14:10:13;6.20;;;2.33;;
59972;SDS011;55298;-36.624;-64.282;2023-06-26T14:12:41;3.72;;;2.67;;
59972;SDS011;55298;-36.624;-64.282;2023-06-26T14:15:09;2.88;;;2.65;;
59972;SDS011;55298;-36.624;-64.282;2023-06-26T14:17:40;4.75;;;4.45;;
59972;SDS011;55298;-36.624;-64.282;2023-06-26T14:20:13;4.07;;;2.53;;
59972;SDS011;55298;-36.624;-64.282;2023-06-26T14:25:10;9.82;;;4.82;;
59972;SDS011;55298;-36.624;-64.282;2023-06-26T14:27:39;7.35;;;3.75;;
59972;SDS011;55298;-36.624;-64.282;2023-06-26T14:30:11;3.90;;;2.45;;
59972;SDS011;55298;-36.624;-64.282;2023-06-26T14:32:42;2.50;;;2.40;;
59972;SDS011;55298;-36.624;-64.282;2023-06-26T14:35:51;2.72;;;2.53;;
59972;SDS011;55298;-36.624;-64.282;2023-06-26T14:38:33;2.63;;;2.40;;
59972;SDS011;55298;-36.624;-64.282;2023-06-26T14:41:04;3.30;;;2.85;;
59972;SDS011;55298;-36.624;-64.282;2023-06-26T14:43:32;8.52;;;3.65;;
59972;SDS011;55298;-36.624;-64.282;2023-06-26T14:46:00;6.40;;;3.22;;
59972;SDS011;55298;-36.624;-64.282;2023-06-26T14:48:31;6.07;;;3.33;;
59972;SDS011;55298;-36.624;-64.282;2023-06-26T14:51:03;2.10;;;2.00;;
59972;SDS011;55298;-36.624;-64.282;2023-06-26T14:53:37;4.55;;;2.58;;
59972;SDS011;55298;-36.624;-64.282;2023-06-26T14:56:11;4.28;;;2.00;;
59972;SDS011;55298;-36.624;-64.282;2023-06-26T14:58:39;2.60;;;2.40;;
59972;SDS011;55298;-36.624;-64.282;2023-06-26T15:01:08;2.08;;;1.98;;
59972;SDS011;55298;-36.624;-64.282;2023-06-26T15:03:36;2.25;;;2.10;;
59972;SDS011;55298;-36.624;-64.282;2023-06-26T15:06:05;6.43;;;2.70;;
59972;SDS011;55298;-36.624;-64.282;2023-06-26T15:08:36;5.43;;;2.47;;
59972;SDS011;55298;-36.624;-64.282;2023-06-26T15:11:06;4.45;;;2.50;;